Kamilche, Washington
Current Conditions -  °F | °C
As of 4:02 AM on Saturday 20 Dec 2014 (Local Time) from KSHN Reporting Station
Light Rain Light Rain  
Wind Chill: 42°   Ceiling: 700
Heat Index: 45°   Visibility: 6mi
Dew Point: 43°   Wind: 6mph
Humidity: 93%   Direction: 130°SE
Pressure: 29.69"   Gusts: NA
Location:  47.1839°N, 123.15°W
Report Text: KSHN 201202Z AUTO 13005KT 6SM -RA BR BKN007 BKN016 OVC020 07/06 A2969 RMK AO2 P0001 T00720061
Loading
Personal Weather Stations






























Interactive Weather Map New forecast layout! Learn more

10-Day Weather Forecast

Advertisements
Track Severe Weather on mobile